Time;durP1;ratioP1;P1;durP2;ratioP2;P2;SDS_P1;SDS_P2;PMS_P1;PMS_P2;Temp;Humidity;BMP_temperature;BMP_pressure;BME280_temperature;BME280_humidity;BME280_pressure;Samples;Min_cycle;Max_cycle;Signal;HPM_P1;HPM_P2
2023/06/21 00:00:15;;;;;;;6.40;3.20;;;16.40;69.00;;;;;;5059794;28;20066;-74
2023/06/21 00:02:45;;;;;;;4.10;2.75;;;16.30;69.10;;;;;;5059758;28;20115;-74
2023/06/21 00:05:11;;;;;;;4.28;3.17;;;16.20;69.50;;;;;;5059933;28;20113;-74
2023/06/21 00:07:42;;;;;;;4.95;2.90;;;16.20;69.50;;;;;;5061401;28;20064;-74
2023/06/21 00:10:08;;;;;;;3.00;2.70;;;16.10;69.90;;;;;;5060261;28;20447;-74
2023/06/21 00:12:35;;;;;;;4.15;2.92;;;16.10;69.90;;;;;;5063100;28;20060;-73
2023/06/21 00:15:02;;;;;;;4.45;3.10;;;16.10;69.90;;;;;;5062415;28;20037;-74
2023/06/21 00:17:29;;;;;;;4.85;3.03;;;16.00;69.80;;;;;;5059800;28;20094;-72
2023/06/21 00:19:55;;;;;;;5.28;3.25;;;16.00;69.80;;;;;;5060894;28;20036;-75
2023/06/21 00:22:22;;;;;;;5.15;3.05;;;16.00;69.90;;;;;;5060402;28;20589;-74
2023/06/21 00:24:52;;;;;;;6.35;2.63;;;15.90;69.90;;;;;;5075486;28;20542;-74
2023/06/21 00:27:18;;;;;;;5.38;3.30;;;15.90;70.00;;;;;;5061253;28;20036;-74
2023/06/21 00:29:44;;;;;;;6.10;3.30;;;15.80;70.10;;;;;;5060316;28;20504;-73
2023/06/21 00:32:10;;;;;;;3.20;2.90;;;15.80;70.00;;;;;;5055516;28;20043;-73
2023/06/21 00:34:37;;;;;;;3.55;3.20;;;15.80;70.20;;;;;;5061564;28;20040;-73
2023/06/21 00:37:05;;;;;;;4.03;3.15;;;15.80;70.10;;;;;;5075722;28;20132;-74
2023/06/21 00:39:31;;;;;;;3.17;2.67;;;15.80;69.90;;;;;;5059516;28;20060;-73
2023/06/21 00:41:58;;;;;;;5.28;3.08;;;15.80;70.00;;;;;;5062994;28;20666;-74
2023/06/21 00:44:24;;;;;;;3.92;3.00;;;15.80;70.00;;;;;;5060121;28;20072;-73
2023/06/21 00:46:50;;;;;;;3.35;2.90;;;15.70;70.10;;;;;;5076068;28;20063;-73
2023/06/21 00:49:17;;;;;;;4.13;3.20;;;15.70;70.30;;;;;;5063054;28;20041;-74
2023/06/21 00:51:44;;;;;;;4.15;2.97;;;15.70;70.30;;;;;;5062218;28;20053;-74
2023/06/21 00:54:16;;;;;;;4.68;3.47;;;15.70;70.60;;;;;;5063783;28;20054;-74
2023/06/21 00:56:43;;;;;;;4.55;3.15;;;15.70;71.40;;;;;;5060680;28;20017;-74
2023/06/21 00:59:10;;;;;;;3.15;2.85;;;15.70;70.80;;;;;;5056553;28;20037;-74
2023/06/21 01:01:38;;;;;;;5.22;3.10;;;15.60;70.70;;;;;;5045621;28;20025;-75
2023/06/21 01:04:08;;;;;;;4.95;3.35;;;15.60;70.80;;;;;;5061768;28;20639;-75
2023/06/21 01:06:39;;;;;;;5.93;3.30;;;15.60;70.80;;;;;;5062887;28;20036;-72
2023/06/21 01:09:13;;;;;;;3.70;3.20;;;15.50;71.00;;;;;;5063424;28;20040;-73
2023/06/21 01:12:07;;;;;;;4.38;3.10;;;15.50;70.90;;;;;;5062851;28;20056;-74
2023/06/21 01:14:44;;;;;;;5.15;3.25;;;15.50;71.10;;;;;;5060107;28;20033;-73
2023/06/21 01:17:11;;;;;;;5.10;3.22;;;15.50;71.30;;;;;;5058879;28;20036;-73
2023/06/21 01:19:53;;;;;;;3.58;3.08;;;15.50;71.30;;;;;;5061805;28;20044;-73
2023/06/21 01:22:22;;;;;;;3.58;3.13;;;15.50;71.80;;;;;;5057540;28;20135;-73
2023/06/21 01:25:06;;;;;;;3.22;2.88;;;15.40;71.80;;;;;;5058356;28;20040;-73
2023/06/21 01:27:41;;;;;;;3.28;2.97;;;15.50;71.70;;;;;;5063842;28;20031;-73
2023/06/21 01:30:10;;;;;;;3.65;2.95;;;15.60;71.30;;;;;;5078711;28;20029;-74
2023/06/21 01:32:40;;;;;;;5.07;3.03;;;15.70;71.00;;;;;;5065264;28;20041;-74
2023/06/21 01:35:08;;;;;;;4.22;2.88;;;15.70;71.10;;;;;;5063985;28;20028;-74
2023/06/21 01:37:34;;;;;;;4.95;3.13;;;15.80;70.60;;;;;;5067177;28;20059;-73
2023/06/21 01:40:00;;;;;;;3.60;3.30;;;15.90;70.50;;;;;;5060611;28;20039;-73
2023/06/21 01:42:26;;;;;;;3.38;2.90;;;15.90;70.10;;;;;;5077859;28;20037;-73
2023/06/21 01:44:52;;;;;;;4.55;3.15;;;15.90;70.50;;;;;;5063410;28;20032;-73
2023/06/21 01:47:20;;;;;;;3.05;2.75;;;16.00;70.40;;;;;;5048829;28;20094;-73
2023/06/21 01:49:46;;;;;;;4.15;2.95;;;16.00;70.40;;;;;;5065320;28;20132;-73
2023/06/21 01:52:14;;;;;;;3.50;3.17;;;16.00;70.40;;;;;;5064595;28;20040;-73
2023/06/21 01:54:41;;;;;;;3.63;2.95;;;15.90;70.40;;;;;;5063132;28;20033;-74
2023/06/21 01:57:10;;;;;;;4.30;3.30;;;15.90;70.70;;;;;;5079136;28;20047;-74
2023/06/21 01:59:36;;;;;;;4.05;3.53;;;15.80;70.90;;;;;;5078728;28;20036;-74
2023/06/21 02:02:05;;;;;;;5.22;3.40;;;15.80;71.20;;;;;;5066499;28;20032;-74
2023/06/21 02:04:33;;;;;;;8.57;3.60;;;15.80;71.40;;;;;;5078466;28;20041;-74
2023/06/21 02:07:00;;;;;;;3.70;3.28;;;15.60;71.40;;;;;;5063578;28;20032;-74
2023/06/21 02:09:27;;;;;;;3.97;3.03;;;15.60;71.90;;;;;;5061781;28;20036;-73
2023/06/21 02:11:53;;;;;;;6.05;4.20;;;15.70;72.10;;;;;;5066734;28;20075;-75
2023/06/21 02:14:20;;;;;;;4.88;3.70;;;15.70;72.40;;;;;;5077959;28;20032;-74
2023/06/21 02:16:47;;;;;;;6.15;3.58;;;15.80;72.20;;;;;;5064742;28;20029;-75
2023/06/21 02:19:13;;;;;;;5.10;3.60;;;15.90;72.00;;;;;;5064866;28;20414;-77
2023/06/21 02:21:40;;;;;;;5.18;3.45;;;16.00;71.80;;;;;;5061861;28;20153;-76
2023/06/21 02:24:06;;;;;;;5.07;3.60;;;16.10;71.50;;;;;;5062924;28;20070;-77
2023/06/21 02:26:32;;;;;;;4.70;3.70;;;16.20;71.50;;;;;;5062933;28;20445;-77
2023/06/21 02:28:58;;;;;;;8.00;4.00;;;16.30;70.90;;;;;;5078132;28;20037;-76
2023/06/21 02:31:24;;;;;;;5.53;3.53;;;16.40;70.70;;;;;;5057770;28;20106;-76
2023/06/21 02:33:49;;;;;;;4.72;3.65;;;16.50;70.20;;;;;;5062074;28;20028;-77
2023/06/21 02:36:16;;;;;;;7.28;3.80;;;16.50;70.00;;;;;;5060387;28;20032;-77
2023/06/21 02:38:42;;;;;;;5.80;3.88;;;16.70;70.00;;;;;;5061869;28;20083;-74
2023/06/21 02:41:07;;;;;;;6.00;4.00;;;16.80;70.70;;;;;;5061131;28;20032;-74
2023/06/21 02:43:34;;;;;;;6.30;3.85;;;16.80;69.80;;;;;;5062484;28;20028;-74
2023/06/21 02:46:02;;;;;;;5.70;4.13;;;17.00;69.40;;;;;;5061351;28;20025;-74
2023/06/21 02:48:28;;;;;;;5.57;3.95;;;17.10;68.70;;;;;;5062792;28;20044;-74
2023/06/21 02:50:54;;;;;;;10.13;4.85;;;17.20;68.10;;;;;;5065894;28;20047;-74
2023/06/21 02:53:20;;;;;;;7.22;4.60;;;17.30;68.20;;;;;;5061549;28;20036;-74
2023/06/21 02:55:46;;;;;;;5.78;4.28;;;17.40;68.20;;;;;;5065304;28;20033;-73
2023/06/21 02:58:12;;;;;;;8.02;4.60;;;17.50;68.20;;;;;;5061447;28;20411;-76
2023/06/21 03:00:40;;;;;;;8.70;4.93;;;17.70;68.00;;;;;;5076466;28;20040;-76
2023/06/21 03:03:07;;;;;;;5.90;4.93;;;17.80;67.70;;;;;;5064138;28;20111;-76
2023/06/21 03:05:35;;;;;;;9.65;5.32;;;17.90;67.70;;;;;;5061879;28;20051;-75
2023/06/21 03:08:07;;;;;;;8.02;5.53;;;18.00;66.10;;;;;;5062459;28;20025;-76
2023/06/21 03:10:33;;;;;;;6.97;4.90;;;17.90;65.30;;;;;;5078289;28;20036;-77
2023/06/21 03:13:00;;;;;;;9.13;5.05;;;17.80;66.50;;;;;;5064762;28;20044;-76
2023/06/21 03:15:26;;;;;;;7.90;5.70;;;17.70;66.60;;;;;;5063808;28;20041;-77
2023/06/21 03:17:52;;;;;;;8.52;5.38;;;17.70;66.50;;;;;;5064933;28;20454;-75
2023/06/21 03:20:18;;;;;;;9.00;5.60;;;17.80;66.30;;;;;;5060287;28;20135;-75
2023/06/21 03:22:45;;;;;;;12.70;6.68;;;17.90;65.90;;;;;;5064638;28;20132;-75
2023/06/21 03:25:13;;;;;;;13.23;6.72;;;17.90;65.80;;;;;;5065310;28;20032;-74
2023/06/21 03:27:41;;;;;;;10.95;6.97;;;18.10;65.50;;;;;;5065450;28;20165;-74
2023/06/21 03:30:11;;;;;;;7.53;6.15;;;18.10;65.10;;;;;;5078686;28;20471;-74
2023/06/21 03:32:40;;;;;;;8.32;5.65;;;18.20;64.90;;;;;;5048226;28;20072;-73
2023/06/21 03:35:06;;;;;;;8.60;4.95;;;18.20;64.90;;;;;;5063570;28;20033;-73
2023/06/21 03:37:32;;;;;;;5.72;4.82;;;18.30;64.10;;;;;;5065478;28;20430;-77
2023/06/21 03:39:59;;;;;;;8.35;5.43;;;18.50;64.20;;;;;;5067918;28;20145;-76
2023/06/21 03:42:25;;;;;;;8.25;5.13;;;18.60;63.80;;;;;;5064977;28;20060;-75
2023/06/21 03:44:51;;;;;;;7.47;5.25;;;18.70;63.30;;;;;;5068533;28;20602;-75
2023/06/21 03:47:16;;;;;;;11.48;5.35;;;18.80;62.90;;;;;;5079285;28;20056;-75
2023/06/21 03:49:43;;;;;;;7.68;5.13;;;18.90;63.00;;;;;;5080665;28;20040;-75
2023/06/21 03:52:09;;;;;;;7.97;4.75;;;19.00;61.90;;;;;;5066632;28;20044;-75
2023/06/21 03:54:35;;;;;;;6.85;4.95;;;19.20;62.00;;;;;;5063854;28;20037;-74
2023/06/21 03:57:02;;;;;;;5.95;4.38;;;19.40;61.10;;;;;;5066066;28;20028;-75
2023/06/21 03:59:28;;;;;;;6.50;4.50;;;19.60;60.60;;;;;;5059652;28;20033;-73
2023/06/21 04:01:54;;;;;;;6.75;4.28;;;19.80;60.00;;;;;;5064212;28;21444;-74
2023/06/21 04:04:24;;;;;;;6.10;3.67;;;20.00;57.40;;;;;;5076035;28;20028;-74
2023/06/21 04:06:51;;;;;;;8.00;3.97;;;20.20;56.80;;;;;;5058944;28;20033;-75
2023/06/21 04:09:17;;;;;;;8.98;4.63;;;20.40;56.60;;;;;;5059887;28;20106;-74
2023/06/21 04:11:43;;;;;;;7.72;4.18;;;20.50;56.70;;;;;;5063792;28;20462;-74
2023/06/21 04:14:09;;;;;;;6.15;4.07;;;20.80;56.30;;;;;;5060685;28;20063;-74
2023/06/21 04:16:35;;;;;;;8.65;4.10;;;21.00;55.30;;;;;;5062931;28;20400;-74
2023/06/21 04:19:01;;;;;;;6.20;4.45;;;21.10;54.90;;;;;;5059187;28;20028;-74
2023/06/21 04:21:27;;;;;;;6.18;3.83;;;21.20;54.70;;;;;;5062230;28;20036;-73
2023/06/21 04:23:53;;;;;;;7.35;4.15;;;21.40;55.00;;;;;;5074569;28;20033;-73
2023/06/21 04:26:18;;;;;;;5.72;4.25;;;21.50;53.70;;;;;;5062741;28;20047;-73
2023/06/21 04:28:48;;;;;;;5.65;3.75;;;21.50;53.40;;;;;;5057145;28;20519;-74
2023/06/21 04:31:14;;;;;;;5.10;3.95;;;21.60;52.90;;;;;;5059647;28;20424;-74
2023/06/21 04:33:40;;;;;;;5.47;3.72;;;21.70;52.90;;;;;;5060669;28;20447;-74
2023/06/21 04:36:06;;;;;;;9.48;3.42;;;21.80;52.40;;;;;;5058162;28;20037;-73
2023/06/21 04:38:33;;;;;;;4.05;3.00;;;21.90;50.90;;;;;;5062695;28;20653;-74
2023/06/21 04:40:59;;;;;;;4.30;2.90;;;22.00;51.80;;;;;;5059709;28;20105;-74
2023/06/21 04:43:25;;;;;;;4.28;2.92;;;22.20;50.70;;;;;;5060794;28;20040;-74
2023/06/21 04:45:51;;;;;;;4.22;3.00;;;22.30;50.20;;;;;;5057805;28;20151;-75
2023/06/21 04:48:17;;;;;;;4.70;3.05;;;22.40;49.50;;;;;;5060118;28;20355;-72
2023/06/21 04:50:45;;;;;;;3.67;2.80;;;22.50;49.20;;;;;;5062678;28;20439;-74
2023/06/21 04:53:14;;;;;;;3.33;2.83;;;22.50;49.50;;;;;;5058531;28;20097;-73
2023/06/21 04:55:44;;;;;;;5.72;3.08;;;22.60;49.40;;;;;;5058246;28;20040;-73
2023/06/21 04:58:12;;;;;;;4.22;2.53;;;22.80;50.20;;;;;;5063126;28;20097;-74
2023/06/21 05:00:38;;;;;;;3.88;2.42;;;22.90;49.60;;;;;;5058728;28;20067;-74
2023/06/21 05:03:04;;;;;;;3.15;2.50;;;23.10;48.40;;;;;;5058886;28;20080;-74
2023/06/21 05:05:30;;;;;;;2.53;2.15;;;23.00;48.40;;;;;;5058245;28;20056;-74
2023/06/21 05:07:56;;;;;;;3.80;1.92;;;23.20;47.60;;;;;;5058917;28;20071;-73
2023/06/21 05:10:22;;;;;;;2.15;1.92;;;23.30;47.10;;;;;;5058736;28;20055;-74
2023/06/21 05:12:48;;;;;;;3.13;2.28;;;23.50;48.20;;;;;;5060933;28;20049;-74
2023/06/21 05:15:14;;;;;;;3.38;2.00;;;23.60;47.40;;;;;;5058934;28;20506;-74
2023/06/21 05:17:40;;;;;;;3.63;2.10;;;23.80;46.10;;;;;;5058454;28;20032;-74
2023/06/21 05:20:08;;;;;;;2.22;1.90;;;24.00;46.90;;;;;;5058756;28;20037;-73
2023/06/21 05:22:34;;;;;;;2.53;1.90;;;24.10;45.60;;;;;;5058919;28;20257;-73
2023/06/21 05:25:02;;;;;;;4.05;2.45;;;24.10;45.80;;;;;;5058069;28;20513;-73
2023/06/21 05:27:28;;;;;;;3.38;2.47;;;24.00;44.70;;;;;;5059964;28;20054;-73
2023/06/21 05:29:54;;;;;;;1.92;1.83;;;23.90;44.30;;;;;;5061926;28;20823;-73
2023/06/21 05:32:20;;;;;;;2.58;1.98;;;23.80;44.50;;;;;;5057356;28;20041;-73
2023/06/21 05:34:47;;;;;;;2.40;1.90;;;23.70;43.70;;;;;;5058495;28;20489;-74
2023/06/21 05:37:13;;;;;;;2.85;1.90;;;23.60;44.80;;;;;;5061877;28;20037;-74
2023/06/21 05:39:38;;;;;;;2.28;2.08;;;23.60;43.20;;;;;;5058234;28;20519;-74
2023/06/21 05:42:05;;;;;;;2.00;1.90;;;23.50;43.20;;;;;;5059856;28;20029;-74
2023/06/21 05:44:31;;;;;;;1.75;1.58;;;23.60;43.80;;;;;;5058415;28;20029;-75
2023/06/21 05:46:57;;;;;;;4.90;1.67;;;23.70;43.40;;;;;;5061869;28;20037;-74
2023/06/21 05:49:23;;;;;;;3.05;1.80;;;23.80;43.40;;;;;;5057396;28;20041;-74
2023/06/21 05:51:49;;;;;;;2.78;1.50;;;23.80;42.00;;;;;;5057029;28;20071;-74
2023/06/21 05:54:15;;;;;;;1.90;1.70;;;23.90;43.20;;;;;;5060668;28;20068;-73
2023/06/21 05:56:40;;;;;;;1.63;1.40;;;24.00;43.60;;;;;;5058730;28;20025;-74
2023/06/21 05:59:06;;;;;;;1.80;1.70;;;24.00;40.70;;;;;;5061970;28;20534;-74
2023/06/21 06:01:33;;;;;;;4.13;1.65;;;24.00;41.60;;;;;;5057731;28;20085;-73
2023/06/21 06:03:58;;;;;;;2.80;1.60;;;24.00;42.30;;;;;;5058482;28;20530;-74
2023/06/21 06:06:38;;;;;;;1.77;1.45;;;24.20;41.90;;;;;;5058602;28;20037;-74
2023/06/21 06:09:05;;;;;;;1.70;1.35;;;24.40;42.00;;;;;;5059756;28;20064;-75
2023/06/21 06:11:31;;;;;;;3.38;1.63;;;24.40;41.40;;;;;;5058007;28;20044;-75
2023/06/21 06:13:57;;;;;;;1.40;1.30;;;24.40;39.70;;;;;;5060145;28;20091;-75
2023/06/21 06:16:23;;;;;;;1.33;1.20;;;24.20;38.90;;;;;;5061953;28;20593;-74
2023/06/21 06:18:49;;;;;;;1.40;1.30;;;24.20;39.90;;;;;;5061590;28;20044;-73
2023/06/21 06:21:21;;;;;;;1.27;1.17;;;24.50;40.70;;;;;;5062893;28;20098;-74
2023/06/21 06:23:52;;;;;;;2.38;1.30;;;24.80;40.80;;;;;;5062766;28;20033;-74
2023/06/21 06:26:23;;;;;;;2.28;1.15;;;24.90;39.90;;;;;;5060595;28;20029;-73
2023/06/21 06:28:50;;;;;;;2.00;1.17;;;24.90;38.50;;;;;;5062039;28;20036;-76
2023/06/21 06:31:19;;;;;;;4.85;1.50;;;25.00;39.70;;;;;;5061677;28;20124;-74
2023/06/21 06:33:45;;;;;;;1.77;1.38;;;25.20;39.50;;;;;;5061016;28;20052;-74
2023/06/21 06:36:11;;;;;;;1.70;1.30;;;25.20;38.30;;;;;;5063162;28;20078;-74
2023/06/21 06:38:37;;;;;;;3.28;1.40;;;25.30;37.40;;;;;;5064658;28;20029;-74
2023/06/21 06:41:04;;;;;;;1.20;1.20;;;25.30;38.20;;;;;;5059997;28;20036;-74
2023/06/21 06:43:31;;;;;;;1.48;1.15;;;25.40;38.10;;;;;;5060393;28;20048;-73
2023/06/21 06:45:57;;;;;;;1.00;1.00;;;25.50;38.10;;;;;;5060095;28;20028;-73
2023/06/21 06:48:24;;;;;;;1.70;1.55;;;25.60;37.70;;;;;;5063849;28;20744;-74
2023/06/21 06:50:50;;;;;;;2.83;1.05;;;25.60;38.60;;;;;;5060680;28;20024;-73
2023/06/21 06:53:16;;;;;;;2.25;1.20;;;25.70;37.80;;;;;;5061492;28;20134;-74
2023/06/21 06:55:42;;;;;;;1.27;1.17;;;25.80;37.60;;;;;;5062962;28;20119;-73
2023/06/21 06:58:08;;;;;;;1.65;1.20;;;25.70;37.10;;;;;;5060942;28;20025;-75
2023/06/21 07:00:33;;;;;;;2.55;1.40;;;25.70;37.90;;;;;;5062245;28;20205;-72
2023/06/21 07:02:59;;;;;;;1.40;1.30;;;25.60;36.20;;;;;;5063221;28;20048;-72
2023/06/21 07:05:26;;;;;;;1.25;1.15;;;25.50;36.60;;;;;;5062962;28;20136;-74
2023/06/21 07:07:53;;;;;;;1.40;1.30;;;25.50;37.70;;;;;;5062555;28;20039;-74
2023/06/21 07:10:20;;;;;;;2.70;1.33;;;25.50;36.80;;;;;;5061005;28;20531;-74
2023/06/21 07:12:46;;;;;;;1.90;1.10;;;25.40;36.40;;;;;;5062220;28;20045;-74
2023/06/21 07:15:12;;;;;;;3.40;1.00;;;25.30;36.80;;;;;;5060540;28;20098;-75
2023/06/21 07:17:38;;;;;;;0.90;0.90;;;25.10;36.40;;;;;;5062518;28;20032;-74
2023/06/21 07:20:06;;;;;;;1.35;0.93;;;25.10;36.20;;;;;;5060370;28;20041;-74
2023/06/21 07:22:35;;;;;;;1.92;1.27;;;25.00;36.90;;;;;;5060378;28;20499;-74
2023/06/21 07:25:01;;;;;;;1.38;1.27;;;25.00;37.80;;;;;;5061761;28;20028;-75
2023/06/21 07:27:27;;;;;;;1.60;1.00;;;25.10;38.40;;;;;;5059561;28;20025;-75
2023/06/21 07:29:53;;;;;;;2.65;1.20;;;25.20;38.10;;;;;;5063400;28;20331;-76
2023/06/21 07:32:19;;;;;;;2.30;1.50;;;25.30;37.80;;;;;;5059656;28;20783;-74
2023/06/21 07:34:45;;;;;;;2.22;1.40;;;25.00;36.20;;;;;;5058231;28;20041;-76
2023/06/21 07:37:11;;;;;;;5.13;1.50;;;24.90;36.80;;;;;;5060468;28;20124;-75
2023/06/21 07:39:38;;;;;;;3.60;1.50;;;24.80;37.20;;;;;;5060399;28;20143;-74
2023/06/21 07:42:04;;;;;;;1.30;1.20;;;24.70;37.40;;;;;;5063563;28;20078;-73
2023/06/21 07:44:31;;;;;;;2.65;1.40;;;24.80;38.50;;;;;;5060272;28;20086;-74
2023/06/21 07:46:57;;;;;;;3.97;1.58;;;24.90;38.80;;;;;;5059468;28;20071;-74
2023/06/21 07:49:23;;;;;;;2.70;1.00;;;25.00;38.50;;;;;;5059170;28;20504;-75
2023/06/21 07:51:50;;;;;;;1.38;1.27;;;24.90;37.00;;;;;;5060702;28;20047;-75
2023/06/21 07:54:16;;;;;;;1.33;1.23;;;24.90;37.70;;;;;;5062650;28;20451;-75
2023/06/21 07:56:42;;;;;;;4.05;1.13;;;24.90;37.20;;;;;;5063470;28;20056;-75
2023/06/21 07:59:08;;;;;;;2.03;1.40;;;24.80;37.20;;;;;;5058720;28;20029;-74
2023/06/21 08:01:35;;;;;;;2.33;1.40;;;24.80;38.20;;;;;;5062216;28;20033;-74
2023/06/21 08:04:01;;;;;;;4.43;1.20;;;24.80;38.10;;;;;;5058767;28;20463;-74
2023/06/21 08:06:27;;;;;;;2.65;1.23;;;24.80;37.70;;;;;;5075119;28;20504;-75
2023/06/21 08:08:53;;;;;;;2.22;1.35;;;24.70;37.80;;;;;;5061063;28;20050;-75
2023/06/21 08:11:19;;;;;;;1.33;1.02;;;24.70;37.20;;;;;;5059338;28;20136;-75
2023/06/21 08:13:46;;;;;;;2.33;1.27;;;24.50;37.70;;;;;;5059978;28;20498;-75
2023/06/21 08:16:12;;;;;;;2.88;1.52;;;24.40;37.30;;;;;;5061393;28;20029;-74
2023/06/21 08:18:37;;;;;;;1.30;1.20;;;24.20;37.50;;;;;;5061803;28;20089;-74
2023/06/21 08:21:05;;;;;;;1.75;1.42;;;24.10;37.90;;;;;;5059005;28;20510;-76
2023/06/21 08:23:31;;;;;;;2.65;1.58;;;24.00;39.30;;;;;;5060137;28;20507;-75
2023/06/21 08:25:57;;;;;;;1.48;1.38;;;24.10;39.90;;;;;;5058312;28;20075;-76
2023/06/21 08:28:23;;;;;;;2.70;1.48;;;24.10;40.30;;;;;;5058256;28;20043;-76
2023/06/21 08:30:49;;;;;;;2.47;1.50;;;24.00;40.10;;;;;;5058829;28;20040;-75
2023/06/21 08:33:15;;;;;;;4.35;1.60;;;23.90;40.50;;;;;;5061079;28;20495;-76
2023/06/21 08:35:41;;;;;;;1.70;1.50;;;24.00;40.60;;;;;;5060424;28;20029;-75
2023/06/21 08:38:07;;;;;;;2.40;1.58;;;24.00;39.50;;;;;;5057073;28;20040;-76
2023/06/21 08:40:36;;;;;;;2.50;1.27;;;24.00;40.30;;;;;;5041400;28;20131;-77
2023/06/21 08:43:01;;;;;;;3.70;1.25;;;23.90;38.50;;;;;;5060446;28;20115;-79
2023/06/21 08:45:27;;;;;;;1.30;1.20;;;23.70;38.50;;;;;;5059976;28;20111;-77
2023/06/21 08:47:56;;;;;;;2.97;1.55;;;23.70;38.80;;;;;;5058792;28;20107;-76
2023/06/21 08:50:23;;;;;;;1.35;1.25;;;23.50;39.00;;;;;;5059757;28;20056;-75
2023/06/21 08:52:52;;;;;;;3.65;1.58;;;23.40;38.80;;;;;;5059523;28;20095;-75
2023/06/21 08:55:23;;;;;;;3.05;1.55;;;23.40;39.20;;;;;;5073630;28;20491;-75
2023/06/21 08:57:51;;;;;;;2.40;1.30;;;23.30;39.20;;;;;;5058921;28;20043;-75
2023/06/21 09:00:24;;;;;;;2.97;1.20;;;23.30;40.80;;;;;;5057751;28;20036;-75
2023/06/21 09:02:52;;;;;;;1.40;1.30;;;23.40;40.20;;;;;;5061450;28;20028;-77
2023/06/21 09:05:45;;;;;;;1.83;1.52;;;23.50;41.20;;;;;;5059200;28;20056;-77
2023/06/21 09:08:11;;;;;;;2.50;1.42;;;23.50;40.80;;;;;;5058750;28;20036;-77
2023/06/21 09:10:40;;;;;;;1.80;1.55;;;23.50;40.40;;;;;;5058660;28;20051;-74
2023/06/21 09:13:06;;;;;;;1.40;1.30;;;23.30;39.60;;;;;;5060356;28;20047;-73
2023/06/21 09:15:35;;;;;;;2.70;1.92;;;23.20;40.00;;;;;;5058503;28;20037;-74
2023/06/21 09:18:01;;;;;;;3.42;1.27;;;23.20;40.30;;;;;;5058984;28;20042;-73
2023/06/21 09:20:28;;;;;;;1.40;1.30;;;23.20;39.40;;;;;;5059369;28;20033;-74
2023/06/21 09:22:59;;;;;;;1.48;1.38;;;23.10;40.50;;;;;;5061358;28;20033;-74
2023/06/21 09:25:28;;;;;;;1.40;1.30;;;23.20;40.90;;;;;;5058766;28;20041;-74
2023/06/21 09:27:54;;;;;;;1.70;1.50;;;23.20;42.00;;;;;;5059400;28;20029;-73
2023/06/21 09:30:21;;;;;;;1.70;1.17;;;23.20;41.30;;;;;;5056537;28;20111;-74
2023/06/21 09:32:48;;;;;;;1.45;1.33;;;23.30;41.20;;;;;;5060334;28;20044;-77
2023/06/21 09:35:14;;;;;;;2.47;1.30;;;23.30;42.00;;;;;;5060342;28;20029;-76
2023/06/21 09:37:41;;;;;;;5.75;1.83;;;23.30;42.20;;;;;;5057074;28;20048;-75
2023/06/21 09:40:07;;;;;;;2.63;1.70;;;23.30;41.90;;;;;;5058640;28;20044;-74
2023/06/21 09:42:39;;;;;;;1.85;1.38;;;23.20;41.40;;;;;;5058791;28;20388;-74
2023/06/21 09:45:09;;;;;;;2.13;1.30;;;23.10;40.40;;;;;;5061303;28;20040;-74
2023/06/21 09:47:35;;;;;;;1.50;1.40;;;23.10;40.90;;;;;;5057540;28;20101;-75
2023/06/21 09:50:05;;;;;;;1.40;1.30;;;23.00;41.10;;;;;;5061874;28;20067;-76
2023/06/21 09:52:32;;;;;;;2.17;1.45;;;23.00;41.60;;;;;;5061665;28;20036;-74
2023/06/21 09:54:58;;;;;;;1.52;1.42;;;23.00;41.30;;;;;;5062799;28;20033;-75
2023/06/21 09:57:32;;;;;;;1.60;1.50;;;23.00;41.20;;;;;;5061362;28;20025;-75
2023/06/21 09:59:59;;;;;;;4.25;1.60;;;23.00;41.10;;;;;;5063886;28;20021;-75
2023/06/21 10:02:26;;;;;;;1.75;1.55;;;23.00;41.80;;;;;;5060911;28;20474;-76
2023/06/21 10:04:56;;;;;;;2.42;1.48;;;23.00;41.30;;;;;;5061548;28;20424;-75
2023/06/21 10:07:22;;;;;;;1.60;1.50;;;22.90;40.70;;;;;;5062377;28;20084;-75
2023/06/21 10:09:48;;;;;;;1.83;1.25;;;22.90;40.60;;;;;;5064108;28;20044;-76
2023/06/21 10:12:15;;;;;;;1.70;1.40;;;22.80;39.70;;;;;;5061705;28;20048;-77
2023/06/21 10:14:42;;;;;;;2.45;1.70;;;22.70;40.60;;;;;;5061140;28;20303;-77
2023/06/21 10:17:09;;;;;;;3.65;1.92;;;22.70;41.20;;;;;;5063731;28;20573;-77
2023/06/21 10:19:35;;;;;;;3.55;1.58;;;22.70;41.10;;;;;;5061294;28;20028;-77
2023/06/21 10:22:04;;;;;;;3.40;1.35;;;22.60;41.50;;;;;;5062609;28;20523;-76
2023/06/21 10:24:47;;;;;;;2.72;1.70;;;22.60;43.80;;;;;;5063558;28;20044;-76
2023/06/21 10:27:14;;;;;;;2.70;1.67;;;22.80;44.50;;;;;;5062980;28;20036;-76
2023/06/21 10:29:42;;;;;;;2.20;1.77;;;22.80;42.30;;;;;;5062189;28;20505;-77
2023/06/21 10:32:09;;;;;;;4.28;1.80;;;22.70;41.80;;;;;;5063116;28;20131;-78
2023/06/21 10:34:49;;;;;;;6.18;1.60;;;22.70;41.10;;;;;;5059017;28;20036;-77
2023/06/21 10:37:29;;;;;;;2.60;1.48;;;22.50;40.40;;;;;;5062169;28;20063;-74
2023/06/21 10:39:57;;;;;;;2.20;1.30;;;22.40;41.60;;;;;;5068580;28;20064;-74
2023/06/21 10:42:24;;;;;;;2.75;1.42;;;22.50;41.30;;;;;;5067455;28;20264;-73
2023/06/21 10:44:51;;;;;;;2.05;1.75;;;22.30;39.80;;;;;;5069819;28;20032;-75
2023/06/21 10:47:19;;;;;;;4.18;1.30;;;22.20;40.30;;;;;;5072349;28;20043;-75
2023/06/21 10:49:47;;;;;;;1.70;1.30;;;22.30;40.70;;;;;;5070294;28;20080;-76
2023/06/21 10:52:14;;;;;;;2.28;1.40;;;22.20;40.80;;;;;;5065073;28;20590;-76
2023/06/21 10:54:42;;;;;;;2.50;1.73;;;22.20;41.40;;;;;;5069207;28;20033;-78
2023/06/21 10:57:08;;;;;;;1.83;1.58;;;22.30;43.30;;;;;;5071491;28;20503;-76
2023/06/21 10:59:35;;;;;;;2.42;1.30;;;22.40;44.10;;;;;;5071665;28;20041;-77
2023/06/21 11:02:01;;;;;;;4.03;1.70;;;22.50;44.30;;;;;;5070027;28;20419;-78
2023/06/21 11:04:27;;;;;;;3.25;1.50;;;22.60;45.00;;;;;;5070673;28;20059;-81
2023/06/21 11:07:00;;;;;;;2.03;1.40;;;22.80;43.90;;;;;;5070422;28;20044;-79
2023/06/21 11:09:26;;;;;;;1.83;1.40;;;22.70;43.00;;;;;;5069738;28;20398;-77
2023/06/21 11:11:53;;;;;;;1.98;1.60;;;22.70;43.60;;;;;;5069760;28;20091;-76
2023/06/21 11:14:31;;;;;;;3.22;1.90;;;22.70;42.10;;;;;;5068914;28;20037;-81
2023/06/21 11:17:14;;;;;;;2.00;1.60;;;22.70;42.60;;;;;;5061381;28;22132;-80
2023/06/21 11:19:43;;;;;;;5.43;1.38;;;22.70;44.30;;;;;;5058855;28;20040;-84
2023/06/21 11:22:24;;;;;;;3.50;1.30;;;22.70;42.80;;;;;;5059932;28;20091;-81
2023/06/21 11:24:58;;;;;;;1.83;1.35;;;22.70;42.50;;;;;;5077379;28;20161;-83
2023/06/21 11:27:25;;;;;;;2.55;1.50;;;22.70;41.40;;;;;;5059836;28;20324;-83
2023/06/21 11:30:09;;;;;;;2.53;1.20;;;22.60;41.10;;;;;;5060212;28;20032;-81
2023/06/21 11:32:37;;;;;;;1.40;1.30;;;22.60;41.20;;;;;;5061338;28;20053;-78
2023/06/21 11:35:08;;;;;;;1.83;1.27;;;22.50;40.30;;;;;;5060564;28;20063;-80
2023/06/21 11:37:44;;;;;;;1.55;1.35;;;22.50;40.70;;;;;;5075804;28;20039;-79
2023/06/21 11:40:14;;;;;;;4.22;1.55;;;22.60;42.80;;;;;;5061333;28;20040;-78
2023/06/21 11:42:48;;;;;;;2.55;1.30;;;22.70;42.00;;;;;;5062566;28;20053;-78
2023/06/21 11:45:21;;;;;;;2.17;1.40;;;22.60;42.40;;;;;;5060158;28;20042;-81
2023/06/21 11:48:04;;;;;;;3.13;2.08;;;22.60;43.10;;;;;;5061744;28;20136;-81
2023/06/21 11:50:33;;;;;;;4.90;1.70;;;22.50;44.00;;;;;;5059274;28;20123;-75
2023/06/21 11:53:12;;;;;;;2.40;1.67;;;22.50;44.80;;;;;;5060219;28;20039;-78
2023/06/21 11:55:39;;;;;;;2.83;1.63;;;22.50;45.10;;;;;;5061463;28;20511;-78
2023/06/21 11:58:08;;;;;;;4.70;2.00;;;22.50;42.80;;;;;;5062273;28;20032;-82
2023/06/21 12:00:34;;;;;;;2.90;1.65;;;22.30;42.50;;;;;;5060650;28;20032;-83
2023/06/21 12:03:06;;;;;;;2.75;1.83;;;22.30;44.30;;;;;;5064309;28;20527;-85
2023/06/21 12:05:52;;;;;;;2.47;1.77;;;;;;;;;;5057541;28;20402;-81
2023/06/21 12:08:20;;;;;;;2.40;1.80;;;22.10;43.30;;;;;;5052417;28;20098;-76
2023/06/21 12:10:48;;;;;;;2.13;1.50;;;22.10;43.70;;;;;;5046905;28;20475;-73
2023/06/21 12:13:16;;;;;;;3.15;1.90;;;22.20;45.00;;;;;;5061768;28;20070;-78
2023/06/21 12:16:02;;;;;;;3.25;1.50;;;22.30;44.90;;;;;;5061607;28;20409;-79
2023/06/21 12:18:30;;;;;;;7.05;2.13;;;22.30;43.10;;;;;;5074809;28;20033;-75
2023/06/21 12:20:58;;;;;;;2.13;1.67;;;22.40;43.60;;;;;;5058295;28;20086;-75
2023/06/21 12:23:25;;;;;;;2.58;1.60;;;22.40;43.60;;;;;;5057743;28;20475;-75
2023/06/21 12:25:58;;;;;;;2.13;1.80;;;22.30;42.80;;;;;;5059276;28;20037;-90
2023/06/21 12:28:25;;;;;;;2.33;1.70;;;22.40;42.70;;;;;;5059722;28;20123;-80
2023/06/21 12:30:58;;;;;;;3.17;1.67;;;22.30;42.70;;;;;;5059456;28;20040;-81
2023/06/21 12:33:29;;;;;;;2.78;1.40;;;22.30;42.70;;;;;;5058487;28;20133;-75
2023/06/21 12:36:20;;;;;;;1.85;1.50;;;22.20;42.80;;;;;;5058594;28;20017;-76
2023/06/21 12:39:07;;;;;;;1.75;1.65;;;22.10;42.00;;;;;;5073907;28;20036;-76
2023/06/21 12:41:34;;;;;;;1.73;1.63;;;22.10;42.20;;;;;;5060228;28;20037;-75
2023/06/21 12:44:02;;;;;;;1.95;1.65;;;22.20;43.00;;;;;;5054924;28;20128;-75
2023/06/21 12:46:35;;;;;;;1.80;1.65;;;22.10;42.20;;;;;;5058217;28;20043;-75
2023/06/21 12:49:01;;;;;;;1.73;1.48;;;22.20;42.40;;;;;;5059896;28;20072;-75
2023/06/21 12:51:29;;;;;;;3.65;1.70;;;22.10;42.50;;;;;;5057875;28;20056;-75